sensor_id;sensor_type;location;lat;lon;timestamp;P1;durP1;ratioP1;P2;durP2;ratioP2
75059;SDS011;63640;59.264;18.116;2023-05-14T00:00:32;16.30;;;7.38;;
75059;SDS011;63640;59.264;18.116;2023-05-14T00:02:57;15.10;;;7.50;;
75059;SDS011;63640;59.264;18.116;2023-05-14T00:05:23;13.52;;;6.35;;
75059;SDS011;63640;59.264;18.116;2023-05-14T00:07:49;19.98;;;7.32;;
75059;SDS011;63640;59.264;18.116;2023-05-14T00:10:14;13.20;;;6.70;;
75059;SDS011;63640;59.264;18.116;2023-05-14T00:12:41;16.88;;;7.03;;
75059;SDS011;63640;59.264;18.116;2023-05-14T00:15:07;17.75;;;8.27;;
75059;SDS011;63640;59.264;18.116;2023-05-14T00:17:33;12.40;;;6.30;;
75059;SDS011;63640;59.264;18.116;2023-05-14T00:19:58;18.40;;;6.85;;
75059;SDS011;63640;59.264;18.116;2023-05-14T00:22:24;14.57;;;6.90;;
75059;SDS011;63640;59.264;18.116;2023-05-14T00:24:50;11.77;;;6.65;;
75059;SDS011;63640;59.264;18.116;2023-05-14T00:27:15;18.02;;;7.40;;
75059;SDS011;63640;59.264;18.116;2023-05-14T00:29:41;14.20;;;7.35;;
75059;SDS011;63640;59.264;18.116;2023-05-14T00:32:06;11.55;;;7.40;;
75059;SDS011;63640;59.264;18.116;2023-05-14T00:34:32;13.02;;;7.57;;
75059;SDS011;63640;59.264;18.116;2023-05-14T00:36:57;12.27;;;7.10;;
75059;SDS011;63640;59.264;18.116;2023-05-14T00:39:23;15.05;;;6.85;;
75059;SDS011;63640;59.264;18.116;2023-05-14T00:41:48;14.30;;;7.35;;
75059;SDS011;63640;59.264;18.116;2023-05-14T00:44:14;16.00;;;8.48;;
75059;SDS011;63640;59.264;18.116;2023-05-14T00:46:39;13.50;;;7.35;;
75059;SDS011;63640;59.264;18.116;2023-05-14T00:49:07;13.00;;;7.00;;
75059;SDS011;63640;59.264;18.116;2023-05-14T00:51:33;12.05;;;7.38;;
75059;SDS011;63640;59.264;18.116;2023-05-14T00:53:58;12.60;;;7.32;;
75059;SDS011;63640;59.264;18.116;2023-05-14T00:56:24;15.90;;;8.25;;
75059;SDS011;63640;59.264;18.116;2023-05-14T00:58:50;17.85;;;7.93;;
75059;SDS011;63640;59.264;18.116;2023-05-14T01:01:16;11.13;;;7.28;;
75059;SDS011;63640;59.264;18.116;2023-05-14T01:03:42;14.48;;;7.45;;
75059;SDS011;63640;59.264;18.116;2023-05-14T01:11:13;14.63;;;8.10;;
75059;SDS011;63640;59.264;18.116;2023-05-14T01:16:18;13.20;;;7.68;;
75059;SDS011;63640;59.264;18.116;2023-05-14T01:18:45;14.90;;;7.32;;
75059;SDS011;63640;59.264;18.116;2023-05-14T01:24:00;16.60;;;8.05;;
75059;SDS011;63640;59.264;18.116;2023-05-14T01:26:25;12.95;;;7.65;;
75059;SDS011;63640;59.264;18.116;2023-05-14T01:28:52;12.60;;;8.40;;
75059;SDS011;63640;59.264;18.116;2023-05-14T01:31:19;14.88;;;8.18;;
75059;SDS011;63640;59.264;18.116;2023-05-14T01:33:49;11.35;;;7.65;;
75059;SDS011;63640;59.264;18.116;2023-05-14T01:36:15;12.15;;;6.97;;
75059;SDS011;63640;59.264;18.116;2023-05-14T01:38:40;14.00;;;7.75;;
75059;SDS011;63640;59.264;18.116;2023-05-14T01:41:09;14.48;;;8.48;;
75059;SDS011;63640;59.264;18.116;2023-05-14T01:43:37;17.77;;;9.48;;
75059;SDS011;63640;59.264;18.116;2023-05-14T01:46:03;15.27;;;8.30;;
75059;SDS011;63640;59.264;18.116;2023-05-14T01:48:28;16.50;;;8.40;;
75059;SDS011;63640;59.264;18.116;2023-05-14T01:50:54;16.00;;;7.97;;
75059;SDS011;63640;59.264;18.116;2023-05-14T01:53:19;13.85;;;7.95;;
75059;SDS011;63640;59.264;18.116;2023-05-14T01:55:45;11.43;;;7.13;;
75059;SDS011;63640;59.264;18.116;2023-05-14T01:58:10;16.20;;;8.15;;
75059;SDS011;63640;59.264;18.116;2023-05-14T02:00:36;13.50;;;7.40;;
75059;SDS011;63640;59.264;18.116;2023-05-14T02:03:02;15.85;;;8.45;;
75059;SDS011;63640;59.264;18.116;2023-05-14T02:05:27;20.08;;;7.80;;
75059;SDS011;63640;59.264;18.116;2023-05-14T02:07:53;14.60;;;7.25;;
75059;SDS011;63640;59.264;18.116;2023-05-14T02:10:19;21.45;;;9.13;;
75059;SDS011;63640;59.264;18.116;2023-05-14T02:12:44;28.58;;;8.40;;
75059;SDS011;63640;59.264;18.116;2023-05-14T02:15:10;17.27;;;9.27;;
75059;SDS011;63640;59.264;18.116;2023-05-14T02:17:36;20.27;;;8.95;;
75059;SDS011;63640;59.264;18.116;2023-05-14T02:20:01;18.20;;;8.80;;
75059;SDS011;63640;59.264;18.116;2023-05-14T02:22:27;15.60;;;9.00;;
75059;SDS011;63640;59.264;18.116;2023-05-14T02:24:52;16.63;;;8.77;;
75059;SDS011;63640;59.264;18.116;2023-05-14T02:27:18;14.57;;;8.82;;
75059;SDS011;63640;59.264;18.116;2023-05-14T02:29:43;24.38;;;8.90;;
75059;SDS011;63640;59.264;18.116;2023-05-14T02:32:09;20.35;;;9.07;;
75059;SDS011;63640;59.264;18.116;2023-05-14T02:34:34;14.80;;;8.25;;
75059;SDS011;63640;59.264;18.116;2023-05-14T02:37:00;16.67;;;8.70;;
75059;SDS011;63640;59.264;18.116;2023-05-14T02:39:25;15.32;;;7.88;;
75059;SDS011;63640;59.264;18.116;2023-05-14T02:41:51;19.05;;;8.85;;
75059;SDS011;63640;59.264;18.116;2023-05-14T02:44:16;16.00;;;7.88;;
75059;SDS011;63640;59.264;18.116;2023-05-14T02:46:42;16.60;;;7.35;;
75059;SDS011;63640;59.264;18.116;2023-05-14T02:49:08;14.63;;;7.88;;
75059;SDS011;63640;59.264;18.116;2023-05-14T02:51:33;14.30;;;7.45;;
75059;SDS011;63640;59.264;18.116;2023-05-14T02:53:58;13.10;;;7.90;;
75059;SDS011;63640;59.264;18.116;2023-05-14T02:56:24;12.57;;;7.47;;
75059;SDS011;63640;59.264;18.116;2023-05-14T02:58:50;17.80;;;7.90;;
75059;SDS011;63640;59.264;18.116;2023-05-14T03:01:16;12.23;;;7.25;;
75059;SDS011;63640;59.264;18.116;2023-05-14T03:03:42;13.57;;;6.82;;
75059;SDS011;63640;59.264;18.116;2023-05-14T03:06:08;12.65;;;7.03;;
75059;SDS011;63640;59.264;18.116;2023-05-14T03:08:34;13.32;;;7.22;;
75059;SDS011;63640;59.264;18.116;2023-05-14T03:10:59;11.13;;;6.80;;
75059;SDS011;63640;59.264;18.116;2023-05-14T03:13:25;11.18;;;6.93;;
75059;SDS011;63640;59.264;18.116;2023-05-14T03:15:50;11.15;;;7.63;;
75059;SDS011;63640;59.264;18.116;2023-05-14T03:18:18;13.43;;;7.50;;
75059;SDS011;63640;59.264;18.116;2023-05-14T03:20:44;13.43;;;7.25;;
75059;SDS011;63640;59.264;18.116;2023-05-14T03:23:10;13.73;;;7.15;;
75059;SDS011;63640;59.264;18.116;2023-05-14T03:25:36;13.30;;;7.82;;
75059;SDS011;63640;59.264;18.116;2023-05-14T03:28:01;12.63;;;8.45;;
75059;SDS011;63640;59.264;18.116;2023-05-14T03:30:27;13.23;;;7.72;;
75059;SDS011;63640;59.264;18.116;2023-05-14T03:32:53;14.13;;;7.90;;
75059;SDS011;63640;59.264;18.116;2023-05-14T03:35:18;13.63;;;7.72;;
75059;SDS011;63640;59.264;18.116;2023-05-14T03:37:44;15.70;;;7.70;;
75059;SDS011;63640;59.264;18.116;2023-05-14T03:40:09;15.55;;;7.68;;
75059;SDS011;63640;59.264;18.116;2023-05-14T03:42:35;13.60;;;7.45;;
75059;SDS011;63640;59.264;18.116;2023-05-14T03:45:01;11.07;;;7.43;;
75059;SDS011;63640;59.264;18.116;2023-05-14T03:47:26;10.52;;;6.97;;
75059;SDS011;63640;59.264;18.116;2023-05-14T03:49:52;12.18;;;7.03;;
75059;SDS011;63640;59.264;18.116;2023-05-14T03:52:17;10.60;;;6.28;;
75059;SDS011;63640;59.264;18.116;2023-05-14T03:54:43;11.10;;;7.00;;
75059;SDS011;63640;59.264;18.116;2023-05-14T03:57:08;13.57;;;7.40;;
75059;SDS011;63640;59.264;18.116;2023-05-14T03:59:34;15.88;;;7.05;;
75059;SDS011;63640;59.264;18.116;2023-05-14T04:01:59;11.93;;;7.10;;
75059;SDS011;63640;59.264;18.116;2023-05-14T04:04:25;12.85;;;7.03;;
75059;SDS011;63640;59.264;18.116;2023-05-14T04:06:50;15.00;;;7.20;;
75059;SDS011;63640;59.264;18.116;2023-05-14T04:09:16;15.48;;;7.45;;
75059;SDS011;63640;59.264;18.116;2023-05-14T04:11:41;15.32;;;7.07;;
75059;SDS011;63640;59.264;18.116;2023-05-14T04:14:07;10.57;;;6.20;;
75059;SDS011;63640;59.264;18.116;2023-05-14T04:16:32;14.60;;;6.45;;
75059;SDS011;63640;59.264;18.116;2023-05-14T04:18:59;12.35;;;6.93;;
75059;SDS011;63640;59.264;18.116;2023-05-14T04:21:26;10.38;;;6.05;;
75059;SDS011;63640;59.264;18.116;2023-05-14T04:23:51;13.73;;;6.68;;
75059;SDS011;63640;59.264;18.116;2023-05-14T04:26:17;9.75;;;5.15;;
75059;SDS011;63640;59.264;18.116;2023-05-14T04:28:42;12.23;;;6.05;;
75059;SDS011;63640;59.264;18.116;2023-05-14T04:31:08;11.27;;;5.63;;
75059;SDS011;63640;59.264;18.116;2023-05-14T04:33:33;13.65;;;5.95;;
75059;SDS011;63640;59.264;18.116;2023-05-14T04:35:59;11.15;;;5.22;;
75059;SDS011;63640;59.264;18.116;2023-05-14T04:38:24;11.02;;;5.70;;
75059;SDS011;63640;59.264;18.116;2023-05-14T04:40:50;10.45;;;5.85;;
75059;SDS011;63640;59.264;18.116;2023-05-14T04:43:16;9.57;;;5.43;;
75059;SDS011;63640;59.264;18.116;2023-05-14T04:45:41;8.55;;;5.00;;
75059;SDS011;63640;59.264;18.116;2023-05-14T04:48:07;12.63;;;5.28;;
75059;SDS011;63640;59.264;18.116;2023-05-14T04:50:33;10.13;;;4.90;;
75059;SDS011;63640;59.264;18.116;2023-05-14T04:52:59;8.13;;;4.93;;
75059;SDS011;63640;59.264;18.116;2023-05-14T04:55:24;10.60;;;4.63;;
75059;SDS011;63640;59.264;18.116;2023-05-14T04:57:50;11.15;;;5.18;;
75059;SDS011;63640;59.264;18.116;2023-05-14T05:00:16;11.13;;;4.90;;
75059;SDS011;63640;59.264;18.116;2023-05-14T05:02:42;9.65;;;4.95;;
75059;SDS011;63640;59.264;18.116;2023-05-14T05:05:07;9.48;;;4.70;;
75059;SDS011;63640;59.264;18.116;2023-05-14T05:07:34;8.73;;;4.93;;
75059;SDS011;63640;59.264;18.116;2023-05-14T05:09:59;11.40;;;4.53;;
75059;SDS011;63640;59.264;18.116;2023-05-14T05:12:25;7.93;;;4.32;;
75059;SDS011;63640;59.264;18.116;2023-05-14T05:14:54;8.25;;;4.28;;
75059;SDS011;63640;59.264;18.116;2023-05-14T05:17:23;11.13;;;5.00;;
75059;SDS011;63640;59.264;18.116;2023-05-14T05:19:49;8.73;;;3.88;;
75059;SDS011;63640;59.264;18.116;2023-05-14T05:22:14;7.45;;;3.90;;
75059;SDS011;63640;59.264;18.116;2023-05-14T05:24:40;8.65;;;4.20;;
75059;SDS011;63640;59.264;18.116;2023-05-14T05:27:06;9.07;;;4.15;;
75059;SDS011;63640;59.264;18.116;2023-05-14T05:29:31;12.32;;;4.22;;
75059;SDS011;63640;59.264;18.116;2023-05-14T05:31:57;9.90;;;4.53;;
75059;SDS011;63640;59.264;18.116;2023-05-14T05:34:23;9.50;;;4.78;;
75059;SDS011;63640;59.264;18.116;2023-05-14T05:36:48;9.65;;;4.80;;
75059;SDS011;63640;59.264;18.116;2023-05-14T05:39:14;8.73;;;4.00;;
75059;SDS011;63640;59.264;18.116;2023-05-14T05:41:39;8.55;;;4.20;;
75059;SDS011;63640;59.264;18.116;2023-05-14T05:44:05;8.00;;;3.65;;
75059;SDS011;63640;59.264;18.116;2023-05-14T05:46:30;11.10;;;4.20;;
75059;SDS011;63640;59.264;18.116;2023-05-14T05:48:56;8.48;;;4.20;;
75059;SDS011;63640;59.264;18.116;2023-05-14T05:51:21;8.70;;;3.75;;
75059;SDS011;63640;59.264;18.116;2023-05-14T05:53:47;8.73;;;4.05;;
75059;SDS011;63640;59.264;18.116;2023-05-14T05:56:12;9.52;;;3.70;;
75059;SDS011;63640;59.264;18.116;2023-05-14T05:58:38;7.90;;;4.38;;
75059;SDS011;63640;59.264;18.116;2023-05-14T06:01:03;8.90;;;3.53;;
75059;SDS011;63640;59.264;18.116;2023-05-14T06:03:29;9.35;;;4.22;;
75059;SDS011;63640;59.264;18.116;2023-05-14T06:05:54;8.95;;;4.53;;
75059;SDS011;63640;59.264;18.116;2023-05-14T06:08:20;7.93;;;3.25;;
75059;SDS011;63640;59.264;18.116;2023-05-14T06:10:45;6.38;;;3.58;;
75059;SDS011;63640;59.264;18.116;2023-05-14T06:13:11;10.43;;;4.32;;
75059;SDS011;63640;59.264;18.116;2023-05-14T06:15:36;9.05;;;3.80;;
75059;SDS011;63640;59.264;18.116;2023-05-14T06:18:02;8.30;;;3.75;;
75059;SDS011;63640;59.264;18.116;2023-05-14T06:20:28;9.38;;;3.67;;
75059;SDS011;63640;59.264;18.116;2023-05-14T06:22:53;7.55;;;3.65;;
75059;SDS011;63640;59.264;18.116;2023-05-14T06:25:19;10.82;;;3.88;;
75059;SDS011;63640;59.264;18.116;2023-05-14T06:27:44;8.68;;;3.80;;
75059;SDS011;63640;59.264;18.116;2023-05-14T06:30:10;6.10;;;3.33;;
75059;SDS011;63640;59.264;18.116;2023-05-14T06:32:36;8.35;;;3.45;;
75059;SDS011;63640;59.264;18.116;2023-05-14T06:35:01;7.63;;;3.75;;
75059;SDS011;63640;59.264;18.116;2023-05-14T06:37:28;6.57;;;3.60;;
75059;SDS011;63640;59.264;18.116;2023-05-14T06:39:53;8.20;;;3.70;;
75059;SDS011;63640;59.264;18.116;2023-05-14T06:42:19;8.88;;;3.78;;
75059;SDS011;63640;59.264;18.116;2023-05-14T06:44:44;8.48;;;3.58;;
75059;SDS011;63640;59.264;18.116;2023-05-14T06:47:10;7.80;;;3.53;;
75059;SDS011;63640;59.264;18.116;2023-05-14T06:49:35;8.25;;;3.28;;
75059;SDS011;63640;59.264;18.116;2023-05-14T06:52:01;11.20;;;3.65;;
75059;SDS011;63640;59.264;18.116;2023-05-14T06:54:27;10.05;;;3.38;;
75059;SDS011;63640;59.264;18.116;2023-05-14T06:56:53;6.95;;;3.63;;
75059;SDS011;63640;59.264;18.116;2023-05-14T06:59:19;6.72;;;3.45;;
75059;SDS011;63640;59.264;18.116;2023-05-14T07:01:44;10.73;;;3.78;;
75059;SDS011;63640;59.264;18.116;2023-05-14T07:04:10;6.35;;;3.60;;
75059;SDS011;63640;59.264;18.116;2023-05-14T07:06:35;5.65;;;3.13;;
75059;SDS011;63640;59.264;18.116;2023-05-14T07:09:01;10.57;;;3.63;;
75059;SDS011;63640;59.264;18.116;2023-05-14T07:11:27;5.65;;;3.08;;
75059;SDS011;63640;59.264;18.116;2023-05-14T07:13:52;9.38;;;3.35;;
75059;SDS011;63640;59.264;18.116;2023-05-14T07:16:18;9.55;;;3.28;;
75059;SDS011;63640;59.264;18.116;2023-05-14T07:18:44;6.50;;;3.38;;
75059;SDS011;63640;59.264;18.116;2023-05-14T07:21:10;7.28;;;3.53;;
75059;SDS011;63640;59.264;18.116;2023-05-14T07:23:35;8.38;;;3.63;;
75059;SDS011;63640;59.264;18.116;2023-05-14T07:26:03;9.52;;;3.45;;
75059;SDS011;63640;59.264;18.116;2023-05-14T07:28:29;6.70;;;3.22;;
75059;SDS011;63640;59.264;18.116;2023-05-14T07:30:54;8.43;;;3.53;;
75059;SDS011;63640;59.264;18.116;2023-05-14T07:33:20;7.93;;;3.15;;
75059;SDS011;63640;59.264;18.116;2023-05-14T07:35:46;6.20;;;3.22;;
75059;SDS011;63640;59.264;18.116;2023-05-14T07:38:11;6.93;;;3.15;;
75059;SDS011;63640;59.264;18.116;2023-05-14T07:40:37;8.05;;;3.70;;
75059;SDS011;63640;59.264;18.116;2023-05-14T07:43:02;6.18;;;3.20;;
75059;SDS011;63640;59.264;18.116;2023-05-14T07:45:28;8.15;;;2.90;;
75059;SDS011;63640;59.264;18.116;2023-05-14T07:47:53;6.80;;;3.63;;
75059;SDS011;63640;59.264;18.116;2023-05-14T07:50:19;11.10;;;3.53;;
75059;SDS011;63640;59.264;18.116;2023-05-14T07:52:45;6.88;;;3.15;;
75059;SDS011;63640;59.264;18.116;2023-05-14T07:55:11;7.30;;;3.30;;
75059;SDS011;63640;59.264;18.116;2023-05-14T07:57:36;6.32;;;3.03;;
75059;SDS011;63640;59.264;18.116;2023-05-14T08:00:03;9.38;;;3.47;;
75059;SDS011;63640;59.264;18.116;2023-05-14T08:02:31;9.27;;;3.67;;
75059;SDS011;63640;59.264;18.116;2023-05-14T08:04:57;6.40;;;3.63;;
75059;SDS011;63640;59.264;18.116;2023-05-14T08:07:23;8.82;;;3.50;;
75059;SDS011;63640;59.264;18.116;2023-05-14T08:09:48;9.25;;;3.55;;
75059;SDS011;63640;59.264;18.116;2023-05-14T08:12:14;7.97;;;3.10;;
75059;SDS011;63640;59.264;18.116;2023-05-14T08:14:40;6.60;;;3.25;;
75059;SDS011;63640;59.264;18.116;2023-05-14T08:17:05;7.32;;;3.28;;
75059;SDS011;63640;59.264;18.116;2023-05-14T08:19:31;8.05;;;3.60;;
75059;SDS011;63640;59.264;18.116;2023-05-14T08:21:57;6.20;;;3.30;;
75059;SDS011;63640;59.264;18.116;2023-05-14T08:24:22;10.98;;;3.33;;
75059;SDS011;63640;59.264;18.116;2023-05-14T08:26:48;6.53;;;3.65;;
75059;SDS011;63640;59.264;18.116;2023-05-14T08:29:13;14.20;;;3.63;;
75059;SDS011;63640;59.264;18.116;2023-05-14T08:31:39;5.45;;;2.67;;
75059;SDS011;63640;59.264;18.116;2023-05-14T08:34:04;9.38;;;3.53;;
75059;SDS011;63640;59.264;18.116;2023-05-14T08:36:30;7.15;;;3.25;;
75059;SDS011;63640;59.264;18.116;2023-05-14T08:38:55;8.52;;;3.13;;
75059;SDS011;63640;59.264;18.116;2023-05-14T08:41:21;6.45;;;3.17;;
75059;SDS011;63640;59.264;18.116;2023-05-14T08:46:14;9.20;;;3.15;;
75059;SDS011;63640;59.264;18.116;2023-05-14T08:48:42;8.68;;;3.42;;
75059;SDS011;63640;59.264;18.116;2023-05-14T08:51:11;7.07;;;3.05;;
75059;SDS011;63640;59.264;18.116;2023-05-14T08:53:36;8.20;;;3.05;;
75059;SDS011;63640;59.264;18.116;2023-05-14T08:56:04;6.55;;;3.15;;
75059;SDS011;63640;59.264;18.116;2023-05-14T08:58:31;6.40;;;3.03;;
75059;SDS011;63640;59.264;18.116;2023-05-14T09:00:57;7.53;;;3.22;;
75059;SDS011;63640;59.264;18.116;2023-05-14T09:03:23;8.00;;;3.20;;
75059;SDS011;63640;59.264;18.116;2023-05-14T09:05:49;5.80;;;3.33;;
75059;SDS011;63640;59.264;18.116;2023-05-14T09:08:15;6.30;;;3.38;;
75059;SDS011;63640;59.264;18.116;2023-05-14T09:10:41;6.15;;;3.30;;
75059;SDS011;63640;59.264;18.116;2023-05-14T09:13:06;5.78;;;3.03;;
75059;SDS011;63640;59.264;18.116;2023-05-14T09:15:34;7.38;;;3.05;;
75059;SDS011;63640;59.264;18.116;2023-05-14T09:18:01;7.22;;;3.25;;
75059;SDS011;63640;59.264;18.116;2023-05-14T09:20:29;6.97;;;3.10;;
75059;SDS011;63640;59.264;18.116;2023-05-14T09:22:55;5.63;;;3.30;;
75059;SDS011;63640;59.264;18.116;2023-05-14T09:25:25;9.80;;;3.17;;
75059;SDS011;63640;59.264;18.116;2023-05-14T09:27:51;6.18;;;3.00;;
75059;SDS011;63640;59.264;18.116;2023-05-14T09:30:18;8.85;;;2.92;;
75059;SDS011;63640;59.264;18.116;2023-05-14T09:32:44;7.20;;;2.70;;
75059;SDS011;63640;59.264;18.116;2023-05-14T09:35:16;6.13;;;2.92;;
75059;SDS011;63640;59.264;18.116;2023-05-14T09:37:46;6.15;;;2.53;;
75059;SDS011;63640;59.264;18.116;2023-05-14T09:40:15;12.35;;;3.15;;
75059;SDS011;63640;59.264;18.116;2023-05-14T09:42:42;7.00;;;3.05;;
75059;SDS011;63640;59.264;18.116;2023-05-14T09:45:08;7.93;;;2.78;;
75059;SDS011;63640;59.264;18.116;2023-05-14T09:47:34;6.07;;;2.70;;
75059;SDS011;63640;59.264;18.116;2023-05-14T09:50:03;5.80;;;2.80;;
75059;SDS011;63640;59.264;18.116;2023-05-14T09:52:30;10.23;;;2.95;;
75059;SDS011;63640;59.264;18.116;2023-05-14T09:54:56;7.85;;;2.90;;
75059;SDS011;63640;59.264;18.116;2023-05-14T09:57:21;8.30;;;2.70;;
75059;SDS011;63640;59.264;18.116;2023-05-14T09:59:47;6.75;;;2.55;;
75059;SDS011;63640;59.264;18.116;2023-05-14T10:02:21;8.18;;;2.85;;
75059;SDS011;63640;59.264;18.116;2023-05-14T10:04:52;5.78;;;2.60;;
75059;SDS011;63640;59.264;18.116;2023-05-14T10:07:21;6.60;;;2.63;;
75059;SDS011;63640;59.264;18.116;2023-05-14T10:09:50;6.28;;;2.65;;
75059;SDS011;63640;59.264;18.116;2023-05-14T10:12:20;7.10;;;2.45;;
75059;SDS011;63640;59.264;18.116;2023-05-14T10:14:47;8.35;;;2.40;;
75059;SDS011;63640;59.264;18.116;2023-05-14T10:17:13;6.72;;;2.72;;
75059;SDS011;63640;59.264;18.116;2023-05-14T10:19:42;9.50;;;2.70;;
75059;SDS011;63640;59.264;18.116;2023-05-14T10:22:12;7.95;;;3.10;;
75059;SDS011;63640;59.264;18.116;2023-05-14T10:24:39;8.02;;;2.08;;
75059;SDS011;63640;59.264;18.116;2023-05-14T10:27:05;6.05;;;2.53;;
75059;SDS011;63640;59.264;18.116;2023-05-14T10:29:34;4.93;;;2.45;;
75059;SDS011;63640;59.264;18.116;2023-05-14T10:32:04;6.40;;;2.40;;
75059;SDS011;63640;59.264;18.116;2023-05-14T10:37:11;8.07;;;2.45;;
75059;SDS011;63640;59.264;18.116;2023-05-14T10:39:42;7.10;;;2.33;;
75059;SDS011;63640;59.264;18.116;2023-05-14T10:42:12;5.97;;;2.28;;
75059;SDS011;63640;59.264;18.116;2023-05-14T10:47:26;7.70;;;2.50;;
75059;SDS011;63640;59.264;18.116;2023-05-14T10:49:53;5.45;;;2.42;;
75059;SDS011;63640;59.264;18.116;2023-05-14T10:52:20;5.35;;;2.33;;
75059;SDS011;63640;59.264;18.116;2023-05-14T10:54:53;6.10;;;2.50;;
75059;SDS011;63640;59.264;18.116;2023-05-14T10:57:21;5.85;;;2.47;;
75059;SDS011;63640;59.264;18.116;2023-05-14T10:59:48;5.00;;;2.15;;
75059;SDS011;63640;59.264;18.116;2023-05-14T11:05:15;6.82;;;2.47;;
75059;SDS011;63640;59.264;18.116;2023-05-14T11:07:45;4.78;;;2.25;;
75059;SDS011;63640;59.264;18.116;2023-05-14T11:10:18;7.20;;;2.25;;
75059;SDS011;63640;59.264;18.116;2023-05-14T11:15:11;5.78;;;2.35;;
75059;SDS011;63640;59.264;18.116;2023-05-14T11:17:40;6.53;;;2.70;;
75059;SDS011;63640;59.264;18.116;2023-05-14T11:20:07;5.95;;;2.35;;
75059;SDS011;63640;59.264;18.116;2023-05-14T11:22:34;6.15;;;2.10;;
75059;SDS011;63640;59.264;18.116;2023-05-14T11:25:00;6.28;;;2.58;;
75059;SDS011;63640;59.264;18.116;2023-05-14T11:27:26;6.85;;;2.28;;
75059;SDS011;63640;59.264;18.116;2023-05-14T11:29:51;6.63;;;2.35;;
75059;SDS011;63640;59.264;18.116;2023-05-14T11:32:17;8.77;;;2.40;;
75059;SDS011;63640;59.264;18.116;2023-05-14T11:34:44;8.18;;;2.35;;
75059;SDS011;63640;59.264;18.116;2023-05-14T11:37:10;6.68;;;2.25;;
75059;SDS011;63640;59.264;18.116;2023-05-14T11:39:37;9.30;;;2.25;;
75059;SDS011;63640;59.264;18.116;2023-05-14T11:42:11;7.32;;;2.50;;
75059;SDS011;63640;59.264;18.116;2023-05-14T11:44:38;4.90;;;2.47;;
75059;SDS011;63640;59.264;18.116;2023-05-14T11:47:05;7.05;;;2.22;;
75059;SDS011;63640;59.264;18.116;2023-05-14T11:49:31;5.55;;;2.40;;
75059;SDS011;63640;59.264;18.116;2023-05-14T11:52:00;8.90;;;2.63;;
75059;SDS011;63640;59.264;18.116;2023-05-14T11:54:27;4.70;;;2.17;;
75059;SDS011;63640;59.264;18.116;2023-05-14T11:56:56;4.85;;;1.90;;
75059;SDS011;63640;59.264;18.116;2023-05-14T11:59:29;7.53;;;2.50;;
75059;SDS011;63640;59.264;18.116;2023-05-14T12:01:56;6.35;;;2.10;;
75059;SDS011;63640;59.264;18.116;2023-05-14T12:04:22;5.45;;;2.22;;
75059;SDS011;63640;59.264;18.116;2023-05-14T12:06:51;5.90;;;2.10;;
75059;SDS011;63640;59.264;18.116;2023-05-14T12:09:20;7.10;;;2.53;;
75059;SDS011;63640;59.264;18.116;2023-05-14T12:11:47;5.22;;;2.22;;
75059;SDS011;63640;59.264;18.116;2023-05-14T12:14:18;9.38;;;2.35;;
75059;SDS011;63640;59.264;18.116;2023-05-14T12:16:45;6.72;;;1.95;;
75059;SDS011;63640;59.264;18.116;2023-05-14T12:19:16;10.82;;;2.22;;
75059;SDS011;63640;59.264;18.116;2023-05-14T12:21:43;7.72;;;2.35;;
75059;SDS011;63640;59.264;18.116;2023-05-14T12:24:12;6.32;;;2.28;;
75059;SDS011;63640;59.264;18.116;2023-05-14T12:26:43;6.85;;;2.30;;
75059;SDS011;63640;59.264;18.116;2023-05-14T12:29:10;9.07;;;2.03;;
75059;SDS011;63640;59.264;18.116;2023-05-14T12:31:36;9.32;;;2.22;;
75059;SDS011;63640;59.264;18.116;2023-05-14T12:34:02;5.25;;;1.92;;
75059;SDS011;63640;59.264;18.116;2023-05-14T12:36:28;6.72;;;2.20;;
75059;SDS011;63640;59.264;18.116;2023-05-14T12:38:57;8.10;;;2.40;;
75059;SDS011;63640;59.264;18.116;2023-05-14T12:41:26;7.65;;;2.03;;
75059;SDS011;63640;59.264;18.116;2023-05-14T12:43:52;6.75;;;2.67;;
75059;SDS011;63640;59.264;18.116;2023-05-14T12:46:17;5.55;;;1.83;;
75059;SDS011;63640;59.264;18.116;2023-05-14T12:48:43;5.45;;;2.00;;
75059;SDS011;63640;59.264;18.116;2023-05-14T12:51:09;6.95;;;1.95;;
75059;SDS011;63640;59.264;18.116;2023-05-14T12:53:34;6.57;;;2.13;;
75059;SDS011;63640;59.264;18.116;2023-05-14T12:56:00;7.82;;;2.17;;
75059;SDS011;63640;59.264;18.116;2023-05-14T12:58:25;7.45;;;2.05;;
75059;SDS011;63640;59.264;18.116;2023-05-14T13:00:51;5.80;;;1.83;;
75059;SDS011;63640;59.264;18.116;2023-05-14T13:03:16;6.53;;;1.95;;
75059;SDS011;63640;59.264;18.116;2023-05-14T13:05:42;9.18;;;2.17;;
75059;SDS011;63640;59.264;18.116;2023-05-14T13:08:07;4.90;;;2.28;;
75059;SDS011;63640;59.264;18.116;2023-05-14T13:10:33;5.50;;;2.15;;
75059;SDS011;63640;59.264;18.116;2023-05-14T13:12:59;6.38;;;2.33;;
75059;SDS011;63640;59.264;18.116;2023-05-14T13:15:26;7.40;;;1.90;;
75059;SDS011;63640;59.264;18.116;2023-05-14T13:17:52;7.93;;;2.00;;
75059;SDS011;63640;59.264;18.116;2023-05-14T13:20:17;6.05;;;2.30;;
75059;SDS011;63640;59.264;18.116;2023-05-14T13:22:43;6.55;;;2.25;;
75059;SDS011;63640;59.264;18.116;2023-05-14T13:25:09;7.03;;;2.03;;
75059;SDS011;63640;59.264;18.116;2023-05-14T13:27:34;6.20;;;2.20;;
75059;SDS011;63640;59.264;18.116;2023-05-14T13:30:01;7.22;;;1.90;;
75059;SDS011;63640;59.264;18.116;2023-05-14T13:32:28;8.05;;;2.13;;
75059;SDS011;63640;59.264;18.116;2023-05-14T13:34:53;5.25;;;2.03;;
75059;SDS011;63640;59.264;18.116;2023-05-14T13:37:19;8.50;;;2.22;;
75059;SDS011;63640;59.264;18.116;2023-05-14T13:39:44;5.30;;;2.00;;
75059;SDS011;63640;59.264;18.116;2023-05-14T13:42:10;5.65;;;2.15;;
75059;SDS011;63640;59.264;18.116;2023-05-14T13:44:35;5.50;;;1.80;;
75059;SDS011;63640;59.264;18.116;2023-05-14T13:47:01;6.28;;;1.92;;
75059;SDS011;63640;59.264;18.116;2023-05-14T13:49:27;5.97;;;2.50;;
75059;SDS011;63640;59.264;18.116;2023-05-14T13:51:52;4.90;;;2.20;;
75059;SDS011;63640;59.264;18.116;2023-05-14T13:54:17;4.97;;;2.10;;
75059;SDS011;63640;59.264;18.116;2023-05-14T13:56:43;6.28;;;2.10;;
75059;SDS011;63640;59.264;18.116;2023-05-14T13:59:08;5.20;;;2.15;;
75059;SDS011;63640;59.264;18.116;2023-05-14T14:01:35;5.93;;;2.40;;
75059;SDS011;63640;59.264;18.116;2023-05-14T14:04:00;5.40;;;2.05;;
75059;SDS011;63640;59.264;18.116;2023-05-14T14:06:26;8.73;;;2.17;;
75059;SDS011;63640;59.264;18.116;2023-05-14T14:08:52;7.32;;;2.47;;
75059;SDS011;63640;59.264;18.116;2023-05-14T14:11:17;6.97;;;2.20;;
75059;SDS011;63640;59.264;18.116;2023-05-14T14:13:43;8.18;;;2.20;;
75059;SDS011;63640;59.264;18.116;2023-05-14T14:16:08;4.93;;;2.20;;
75059;SDS011;63640;59.264;18.116;2023-05-14T14:18:34;4.63;;;2.03;;
75059;SDS011;63640;59.264;18.116;2023-05-14T14:21:00;7.05;;;2.28;;
75059;SDS011;63640;59.264;18.116;2023-05-14T14:23:25;8.88;;;2.28;;
75059;SDS011;63640;59.264;18.116;2023-05-14T14:25:51;6.88;;;2.40;;
75059;SDS011;63640;59.264;18.116;2023-05-14T14:28:17;8.27;;;2.10;;
75059;SDS011;63640;59.264;18.116;2023-05-14T14:30:43;6.13;;;2.08;;
75059;SDS011;63640;59.264;18.116;2023-05-14T14:33:08;7.40;;;2.20;;
75059;SDS011;63640;59.264;18.116;2023-05-14T14:35:34;7.93;;;2.47;;
75059;SDS011;63640;59.264;18.116;2023-05-14T14:38:01;5.30;;;2.00;;
75059;SDS011;63640;59.264;18.116;2023-05-14T14:40:26;10.93;;;2.20;;
75059;SDS011;63640;59.264;18.116;2023-05-14T14:42:52;7.97;;;2.22;;
75059;SDS011;63640;59.264;18.116;2023-05-14T14:45:18;6.65;;;2.22;;